createdAt,value
2023-12-13T00:01:44.714Z,0.40
2023-12-13T00:04:30.854Z,0.70
2023-12-13T00:07:16.859Z,0.30
2023-12-13T00:10:02.262Z,0.30
2023-12-13T00:12:47.877Z,0.50
2023-12-13T00:15:33.251Z,0.38
2023-12-13T00:18:18.816Z,0.40
2023-12-13T00:21:05.204Z,0.30
2023-12-13T00:23:50.813Z,0.52
2023-12-13T00:26:36.601Z,0.57
2023-12-13T00:29:22.682Z,0.30
2023-12-13T00:32:08.680Z,0.40
2023-12-13T00:34:55.059Z,0.20
2023-12-13T00:37:40.725Z,0.30
2023-12-13T00:40:26.654Z,0.30
2023-12-13T00:43:12.376Z,0.40
2023-12-13T00:45:58.147Z,0.40
2023-12-13T00:48:43.922Z,0.32
2023-12-13T00:51:30.013Z,0.40
2023-12-13T00:54:15.412Z,0.30
2023-12-13T00:57:00.932Z,0.30
2023-12-13T00:59:46.506Z,0.20
2023-12-13T01:02:32.176Z,0.40
2023-12-13T01:05:18.288Z,0.30
2023-12-13T01:08:03.967Z,0.35
2023-12-13T01:10:49.652Z,0.20
2023-12-13T01:13:35.876Z,0.50
2023-12-13T01:16:21.857Z,0.30
2023-12-13T01:19:09.070Z,0.30
2023-12-13T01:21:55.049Z,0.30
2023-12-13T01:24:40.444Z,0.20
2023-12-13T01:27:26.134Z,0.30
2023-12-13T01:30:12.141Z,0.30
2023-12-13T01:32:57.995Z,0.40
2023-12-13T01:35:43.892Z,0.68
2023-12-13T01:38:29.477Z,0.40
2023-12-13T01:41:16.343Z,0.32
2023-12-13T01:44:02.419Z,0.30
2023-12-13T01:46:48.652Z,0.30
2023-12-13T01:49:34.368Z,0.30
2023-12-13T01:52:20.600Z,0.30
2023-12-13T01:55:09.297Z,0.43
2023-12-13T01:57:55.802Z,0.35
2023-12-13T02:00:43.345Z,0.50
2023-12-13T02:03:29.253Z,0.30
2023-12-13T02:06:14.769Z,0.30
2023-12-13T02:09:00.417Z,0.40
2023-12-13T02:11:47.239Z,0.43
2023-12-13T02:14:32.906Z,0.40
2023-12-13T02:17:18.411Z,0.40
2023-12-13T02:20:04.961Z,0.30
2023-12-13T02:22:50.689Z,0.40
2023-12-13T02:26:02.320Z,0.40
2023-12-13T02:28:49.471Z,0.30
2023-12-13T02:31:36.831Z,0.32
2023-12-13T02:34:22.963Z,0.50
2023-12-13T02:37:09.479Z,0.60
2023-12-13T02:39:56.976Z,0.47
2023-12-13T02:42:43.117Z,0.40
2023-12-13T02:45:28.869Z,0.55
2023-12-13T02:48:14.474Z,0.70
2023-12-13T02:51:00.330Z,0.40
2023-12-13T02:53:46.153Z,0.40
2023-12-13T02:56:31.760Z,0.50
2023-12-13T02:59:18.073Z,0.52
2023-12-13T03:02:04.331Z,0.60
2023-12-13T03:04:50.089Z,0.80
2023-12-13T03:07:36.259Z,0.85
2023-12-13T03:10:22.135Z,0.90
2023-12-13T03:13:07.962Z,0.70
2023-12-13T03:15:53.916Z,0.80
2023-12-13T03:18:39.566Z,0.90
2023-12-13T03:21:25.462Z,1.20
2023-12-13T03:24:11.604Z,0.80
2023-12-13T03:26:56.924Z,1.15
2023-12-13T03:29:42.415Z,1.08
2023-12-13T03:32:27.863Z,1.30
2023-12-13T03:35:13.450Z,0.85
2023-12-13T03:37:59.190Z,0.73
2023-12-13T03:40:44.786Z,0.60
2023-12-13T03:43:30.719Z,0.65
2023-12-13T03:46:17.198Z,0.70
2023-12-13T03:49:02.912Z,0.77
2023-12-13T03:51:48.858Z,0.68
2023-12-13T03:54:34.598Z,0.52
2023-12-13T03:57:20.299Z,0.52
2023-12-13T04:00:07.883Z,0.43
2023-12-13T04:02:58.436Z,0.60
2023-12-13T04:05:44.449Z,0.68
2023-12-13T04:08:30.152Z,0.80
2023-12-13T04:11:15.794Z,1.10
2023-12-13T04:14:01.765Z,1.00
2023-12-13T04:16:47.524Z,0.85
2023-12-13T04:19:32.985Z,0.77
2023-12-13T04:22:18.514Z,0.70
2023-12-13T04:25:05.185Z,0.52
2023-12-13T04:27:50.889Z,0.70
2023-12-13T04:30:36.489Z,0.80
2023-12-13T04:33:22.510Z,0.90
2023-12-13T04:36:08.984Z,1.10
2023-12-13T04:38:55.000Z,1.13
2023-12-13T04:41:40.809Z,1.00
2023-12-13T04:44:29.061Z,0.90
2023-12-13T04:47:14.730Z,1.00
2023-12-13T04:50:00.701Z,0.70
2023-12-13T04:52:46.252Z,0.60
2023-12-13T04:55:32.426Z,0.60
2023-12-13T04:58:18.434Z,0.60
2023-12-13T05:01:04.509Z,0.80
2023-12-13T05:03:50.701Z,0.98
2023-12-13T05:06:36.631Z,1.33
2023-12-13T05:09:22.950Z,0.70
2023-12-13T05:12:08.570Z,0.68
2023-12-13T05:14:54.591Z,1.10
2023-12-13T05:17:40.182Z,0.93
2023-12-13T05:20:26.310Z,0.82
2023-12-13T05:23:12.447Z,0.77
2023-12-13T05:25:58.286Z,1.95
2023-12-13T05:28:44.772Z,1.30
2023-12-13T05:31:30.657Z,0.90
2023-12-13T05:34:17.371Z,0.80
2023-12-13T05:37:06.570Z,0.70
2023-12-13T05:42:38.127Z,0.80
2023-12-13T05:45:23.677Z,0.80
2023-12-13T05:48:10.330Z,0.70
2023-12-13T05:50:56.103Z,0.60
2023-12-13T05:53:41.701Z,0.90
2023-12-13T05:56:28.912Z,0.70
2023-12-13T05:59:15.064Z,1.42
2023-12-13T06:02:00.956Z,0.90
2023-12-13T06:04:46.953Z,0.90
2023-12-13T06:07:33.714Z,1.20
2023-12-13T06:10:19.792Z,1.30
2023-12-13T06:13:05.312Z,1.15
2023-12-13T06:15:51.414Z,1.75
2023-12-13T06:18:37.198Z,2.55
2023-12-13T06:21:23.075Z,2.75
2023-12-13T06:24:08.648Z,1.77
2023-12-13T06:26:54.866Z,1.50
2023-12-13T06:29:40.848Z,2.08
2023-12-13T06:32:26.570Z,2.03
2023-12-13T06:35:14.177Z,1.50
2023-12-13T06:37:59.874Z,2.60
2023-12-13T06:40:45.631Z,2.60
2023-12-13T06:43:31.499Z,2.78
2023-12-13T06:46:18.252Z,8.65
2023-12-13T06:49:05.572Z,9.32
2023-12-13T06:51:54.188Z,14.93
2023-12-13T06:54:39.956Z,9.68
2023-12-13T06:57:26.020Z,5.03
2023-12-13T07:00:12.758Z,3.97
2023-12-13T07:02:58.486Z,3.30
2023-12-13T07:05:44.300Z,3.33
2023-12-13T07:08:30.031Z,3.10
2023-12-13T07:11:16.771Z,3.42
2023-12-13T07:14:03.192Z,3.40
2023-12-13T07:16:49.191Z,3.53
2023-12-13T07:19:35.171Z,3.28
2023-12-13T07:22:20.819Z,2.58
2023-12-13T07:25:08.019Z,3.33
2023-12-13T07:27:54.113Z,2.80
2023-12-13T07:30:45.402Z,2.97
2023-12-13T07:33:39.947Z,3.17
2023-12-13T07:36:25.856Z,2.83
2023-12-13T07:39:12.035Z,2.95
2023-12-13T07:41:58.921Z,3.63
2023-12-13T07:44:46.596Z,3.20
2023-12-13T07:47:32.103Z,4.70
2023-12-13T07:50:18.123Z,4.82
2023-12-13T07:53:04.275Z,4.45
2023-12-13T07:55:50.466Z,3.67
2023-12-13T07:58:36.689Z,3.47
2023-12-13T08:01:24.023Z,3.53
2023-12-13T08:04:10.024Z,3.20
2023-12-13T08:06:55.678Z,3.40
2023-12-13T08:09:41.627Z,3.80
2023-12-13T08:12:27.840Z,2.85
2023-12-13T08:15:13.336Z,2.97
2023-12-13T08:17:59.624Z,2.85
2023-12-13T08:20:45.570Z,2.28
2023-12-13T08:23:31.195Z,2.60
2023-12-13T08:26:18.004Z,2.00
2023-12-13T08:29:07.138Z,2.22
2023-12-13T08:31:53.929Z,2.10
2023-12-13T08:34:41.923Z,1.90
2023-12-13T08:37:28.212Z,2.22
2023-12-13T08:40:14.722Z,2.13
2023-12-13T08:43:00.252Z,1.60
2023-12-13T08:45:46.276Z,1.85
2023-12-13T08:48:32.563Z,1.63
2023-12-13T08:51:18.632Z,1.85
2023-12-13T08:54:05.419Z,1.88
2023-12-13T08:56:50.766Z,2.10
2023-12-13T08:59:36.638Z,1.80
2023-12-13T09:02:22.355Z,1.40
2023-12-13T09:05:08.784Z,1.75
2023-12-13T09:07:54.635Z,1.67
2023-12-13T09:10:40.038Z,2.08
2023-12-13T09:13:26.912Z,1.58
2023-12-13T09:16:13.559Z,1.60
2023-12-13T09:18:59.257Z,1.75
2023-12-13T09:21:44.961Z,1.80
2023-12-13T09:24:31.113Z,1.90
2023-12-13T09:27:16.720Z,1.80
2023-12-13T09:30:03.929Z,1.60
2023-12-13T09:32:49.590Z,1.83
2023-12-13T09:35:35.298Z,3.08
2023-12-13T09:38:22.346Z,4.28
2023-12-13T09:41:09.717Z,2.95
2023-12-13T09:43:55.707Z,2.67
2023-12-13T09:46:42.286Z,2.55
2023-12-13T09:49:37.469Z,1.55
2023-12-13T09:52:28.485Z,1.73
2023-12-13T09:55:16.874Z,1.40
2023-12-13T09:58:02.709Z,1.20
2023-12-13T10:00:48.692Z,1.20
2023-12-13T10:03:34.601Z,1.00
2023-12-13T10:06:20.583Z,1.00
2023-12-13T10:09:08.804Z,0.88
2023-12-13T10:11:59.822Z,1.05
2023-12-13T10:14:45.741Z,0.90
2023-12-13T10:17:31.294Z,1.30
2023-12-13T10:20:17.526Z,1.00
2023-12-13T10:23:03.327Z,0.80
2023-12-13T10:25:49.375Z,0.93
2023-12-13T10:28:36.532Z,0.70
2023-12-13T10:31:23.455Z,0.95
2023-12-13T10:34:09.486Z,0.85
2023-12-13T10:36:59.378Z,0.77
2023-12-13T10:39:45.863Z,0.60
2023-12-13T10:42:32.998Z,0.68
2023-12-13T10:45:21.152Z,0.90
2023-12-13T10:48:09.811Z,0.77
2023-12-13T10:50:57.916Z,0.68
2023-12-13T10:53:43.847Z,0.73
2023-12-13T10:56:29.570Z,0.70
2023-12-13T10:59:17.381Z,0.82
2023-12-13T11:02:04.777Z,0.98
2023-12-13T11:04:50.834Z,1.10
2023-12-13T11:07:47.565Z,0.93
2023-12-13T11:10:33.389Z,0.70
2023-12-13T11:13:24.471Z,0.70
2023-12-13T11:16:26.772Z,0.82
2023-12-13T11:19:20.555Z,0.82
2023-12-13T11:22:13.455Z,0.90
2023-12-13T11:25:07.727Z,1.23
2023-12-13T11:27:56.636Z,0.70
2023-12-13T11:30:43.278Z,0.77
2023-12-13T11:33:37.179Z,0.90
2023-12-13T11:36:25.409Z,0.75
2023-12-13T11:39:11.115Z,0.90
2023-12-13T11:41:56.699Z,1.02
2023-12-13T11:44:43.638Z,0.80
2023-12-13T11:47:30.029Z,0.90
2023-12-13T11:50:17.945Z,0.95
2023-12-13T11:53:04.506Z,1.10
2023-12-13T11:55:50.562Z,0.90
2023-12-13T11:58:36.918Z,0.90
2023-12-13T12:01:23.057Z,0.98
2023-12-13T12:04:09.944Z,0.75
2023-12-13T12:06:57.562Z,0.80
2023-12-13T12:09:55.080Z,0.80
2023-12-13T12:12:40.655Z,0.65
2023-12-13T12:15:27.591Z,0.80
2023-12-13T12:18:14.596Z,0.90
2023-12-13T12:21:01.062Z,0.65
2023-12-13T12:23:46.463Z,0.85
2023-12-13T12:26:32.433Z,0.60
2023-12-13T12:29:18.637Z,1.05
2023-12-13T12:32:10.986Z,0.80
2023-12-13T12:34:57.151Z,0.70
2023-12-13T12:37:43.625Z,0.90
2023-12-13T12:40:29.632Z,0.50
2023-12-13T12:43:20.329Z,0.70
2023-12-13T12:46:06.683Z,0.70
2023-12-13T12:48:52.655Z,0.60
2023-12-13T12:51:38.697Z,0.63
2023-12-13T12:54:24.698Z,0.52
2023-12-13T12:57:10.552Z,0.50
2023-12-13T12:59:56.184Z,1.33
2023-12-13T13:02:41.806Z,1.17
2023-12-13T13:05:27.510Z,1.42
2023-12-13T13:08:16.306Z,0.82
2023-12-13T13:11:02.059Z,0.77
2023-12-13T13:13:48.093Z,0.60
2023-12-13T13:16:35.014Z,0.60
2023-12-13T13:19:21.122Z,0.50
2023-12-13T13:22:11.473Z,0.60
2023-12-13T13:25:01.535Z,0.70
2023-12-13T13:27:49.008Z,0.80
2023-12-13T13:30:34.442Z,0.80
2023-12-13T13:33:21.009Z,0.75
2023-12-13T13:36:10.506Z,0.50
2023-12-13T13:38:56.954Z,0.70
2023-12-13T13:41:44.106Z,0.63
2023-12-13T13:44:30.608Z,0.60
2023-12-13T13:47:17.340Z,0.50
2023-12-13T13:50:05.105Z,0.85
2023-12-13T13:52:52.855Z,0.80
2023-12-13T13:55:38.811Z,0.77
2023-12-13T13:58:25.356Z,0.90
2023-12-13T14:01:11.878Z,0.60
2023-12-13T14:04:00.392Z,0.75
2023-12-13T14:06:45.993Z,0.70
2023-12-13T14:09:32.832Z,0.95
2023-12-13T14:12:19.244Z,0.82
2023-12-13T14:15:06.453Z,0.80
2023-12-13T14:17:52.758Z,0.88
2023-12-13T14:20:38.823Z,1.25
2023-12-13T14:23:25.652Z,1.35
2023-12-13T14:26:12.036Z,1.10
2023-12-13T14:28:57.786Z,1.23
2023-12-13T14:31:43.962Z,1.00
2023-12-13T14:34:30.269Z,1.20
2023-12-13T14:37:16.831Z,1.00
2023-12-13T14:40:02.505Z,0.95
2023-12-13T14:42:49.802Z,1.02
2023-12-13T14:45:37.284Z,1.35
2023-12-13T14:48:23.075Z,1.30
2023-12-13T14:51:11.687Z,1.65
2023-12-13T14:53:58.678Z,1.63
2023-12-13T14:56:44.792Z,1.27
2023-12-13T14:59:31.091Z,1.20
2023-12-13T15:02:16.896Z,1.33
2023-12-13T15:05:02.941Z,1.08
2023-12-13T15:07:50.319Z,0.93
2023-12-13T15:10:36.199Z,0.90
2023-12-13T15:13:23.520Z,1.20
2023-12-13T15:16:09.970Z,0.82
2023-12-13T15:18:56.437Z,1.10
2023-12-13T15:21:43.306Z,0.77
2023-12-13T15:24:28.757Z,0.90
2023-12-13T15:27:16.974Z,0.77
2023-12-13T15:30:03.733Z,0.73
2023-12-13T15:32:50.071Z,0.80
2023-12-13T15:35:35.921Z,0.70
2023-12-13T15:38:21.626Z,0.80
2023-12-13T15:41:07.956Z,0.50
2023-12-13T15:43:54.775Z,0.73
2023-12-13T15:46:40.397Z,0.75
2023-12-13T15:49:26.248Z,1.00
2023-12-13T15:52:12.052Z,0.95
2023-12-13T15:54:59.372Z,0.80
2023-12-13T15:57:46.458Z,0.70
2023-12-13T16:00:32.183Z,0.75
2023-12-13T16:03:17.953Z,0.50
2023-12-13T16:06:04.595Z,0.50
2023-12-13T16:08:50.031Z,0.50
2023-12-13T16:11:35.609Z,0.80
2023-12-13T16:14:24.231Z,0.70
2023-12-13T16:17:09.997Z,0.50
2023-12-13T16:19:56.565Z,4.22
2023-12-13T16:22:42.323Z,2.88
2023-12-13T16:25:27.929Z,1.70
2023-12-13T16:28:14.154Z,0.90
2023-12-13T16:31:00.933Z,0.90
2023-12-13T16:33:46.790Z,0.90
2023-12-13T16:36:33.108Z,1.02
2023-12-13T16:39:20.993Z,0.70
2023-12-13T16:42:07.280Z,0.80
2023-12-13T16:44:53.378Z,0.73
2023-12-13T16:47:39.894Z,0.82
2023-12-13T16:50:27.693Z,0.70
2023-12-13T16:53:13.870Z,1.05
2023-12-13T16:56:00.610Z,0.90
2023-12-13T16:58:46.686Z,0.75
2023-12-13T17:01:34.316Z,0.80
2023-12-13T17:04:20.401Z,1.20
2023-12-13T17:07:07.042Z,3.08
2023-12-13T17:09:55.574Z,3.08
2023-12-13T17:12:41.234Z,3.58
2023-12-13T17:15:26.946Z,6.80
2023-12-13T17:18:12.887Z,2.58
2023-12-13T17:20:59.022Z,2.35
2023-12-13T17:23:44.789Z,2.47
2023-12-13T17:26:31.536Z,2.10
2023-12-13T17:29:26.127Z,2.67
2023-12-13T17:32:21.219Z,2.35
2023-12-13T17:35:07.101Z,2.40
2023-12-13T17:37:52.837Z,2.88
2023-12-13T17:40:39.003Z,3.17
2023-12-13T17:43:26.370Z,2.67
2023-12-13T17:46:12.986Z,2.63
2023-12-13T17:48:59.176Z,2.00
2023-12-13T17:51:44.817Z,2.47
2023-12-13T17:54:30.490Z,1.45
2023-12-13T17:57:16.579Z,2.13
2023-12-13T18:00:02.171Z,2.60
2023-12-13T18:02:50.771Z,3.17
2023-12-13T18:05:36.844Z,2.55
2023-12-13T18:08:24.016Z,2.28
2023-12-13T18:11:10.750Z,2.20
2023-12-13T18:13:56.907Z,1.38
2023-12-13T18:16:42.838Z,0.95
2023-12-13T18:19:29.814Z,0.90
2023-12-13T18:22:15.710Z,0.90
2023-12-13T18:25:01.330Z,0.68
2023-12-13T18:27:48.982Z,1.13
2023-12-13T18:30:34.802Z,0.77
2023-12-13T18:33:21.004Z,0.70
2023-12-13T18:36:07.303Z,1.38
2023-12-13T18:38:53.115Z,1.35
2023-12-13T18:41:38.718Z,1.38
2023-12-13T18:44:24.369Z,3.50
2023-12-13T18:47:10.027Z,3.63
2023-12-13T18:49:56.458Z,2.30
2023-12-13T18:52:42.316Z,2.10
2023-12-13T18:55:29.069Z,1.55
2023-12-13T18:58:15.184Z,3.30
2023-12-13T19:01:01.270Z,3.67
2023-12-13T19:03:47.308Z,4.57
2023-12-13T19:06:33.398Z,3.08
2023-12-13T19:09:19.800Z,2.63
2023-12-13T19:12:06.400Z,2.10
2023-12-13T19:14:53.052Z,1.20
2023-12-13T19:17:40.863Z,0.88
2023-12-13T19:20:26.726Z,1.63
2023-12-13T19:23:14.952Z,2.00
2023-12-13T19:26:00.948Z,2.15
2023-12-13T19:28:47.285Z,1.60
2023-12-13T19:31:33.364Z,1.70
2023-12-13T19:34:27.782Z,0.82
2023-12-13T19:37:20.773Z,0.70
2023-12-13T19:40:07.649Z,0.80
2023-12-13T19:42:53.482Z,1.05
2023-12-13T19:45:38.931Z,0.65
2023-12-13T19:48:24.691Z,2.25
2023-12-13T19:51:10.445Z,2.90
2023-12-13T19:53:56.095Z,3.55
2023-12-13T19:56:41.727Z,6.68
2023-12-13T19:59:28.062Z,6.03
2023-12-13T20:02:13.707Z,3.40
2023-12-13T20:04:59.641Z,3.50
2023-12-13T20:07:46.498Z,2.85
2023-12-13T20:10:32.530Z,2.58
2023-12-13T20:13:17.969Z,14.32
2023-12-13T20:16:03.934Z,9.27
2023-12-13T20:18:49.758Z,11.10
2023-12-13T20:21:35.851Z,6.93
2023-12-13T20:24:21.953Z,4.82
2023-12-13T20:27:08.632Z,5.78
2023-12-13T20:29:54.518Z,3.85
2023-12-13T20:32:40.693Z,3.40
2023-12-13T20:35:26.176Z,2.10
2023-12-13T20:38:11.740Z,1.70
2023-12-13T20:40:57.595Z,1.60
2023-12-13T20:43:43.607Z,2.20
2023-12-13T20:46:29.524Z,2.30
2023-12-13T20:49:15.628Z,2.42
2023-12-13T20:52:02.245Z,2.72
2023-12-13T20:54:48.063Z,2.83
2023-12-13T20:57:33.929Z,3.42
2023-12-13T21:00:21.627Z,3.47
2023-12-13T21:03:07.777Z,4.05
2023-12-13T21:05:53.811Z,4.22
2023-12-13T21:08:40.558Z,5.10
2023-12-13T21:11:26.764Z,4.90
2023-12-13T21:14:12.785Z,3.70
2023-12-13T21:16:58.909Z,4.15
2023-12-13T21:19:44.989Z,3.47
2023-12-13T21:22:31.727Z,3.13
2023-12-13T21:25:17.757Z,2.72
2023-12-13T21:28:04.259Z,2.65
2023-12-13T21:30:50.020Z,3.47
2023-12-13T21:33:36.647Z,4.78
2023-12-13T21:36:23.578Z,3.28
2023-12-13T21:39:10.616Z,2.55
2023-12-13T21:41:56.905Z,1.70
2023-12-13T21:44:42.533Z,2.00
2023-12-13T21:47:32.455Z,1.30
2023-12-13T21:50:18.782Z,1.02
2023-12-13T21:53:04.547Z,1.00
2023-12-13T21:55:50.778Z,0.77
2023-12-13T21:58:36.711Z,0.63
2023-12-13T22:01:22.345Z,0.73
2023-12-13T22:04:08.546Z,0.68
2023-12-13T22:06:54.581Z,0.90
2023-12-13T22:09:40.606Z,1.17
2023-12-13T22:12:27.964Z,3.20
2023-12-13T22:15:13.789Z,1.50
2023-12-13T22:18:00.113Z,1.38
2023-12-13T22:20:46.112Z,1.58
2023-12-13T22:23:40.066Z,2.85
2023-12-13T22:26:30.339Z,1.20
2023-12-13T22:29:15.834Z,0.50
2023-12-13T22:32:01.322Z,1.05
2023-12-13T22:34:46.896Z,0.77
2023-12-13T22:37:32.607Z,0.40
2023-12-13T22:40:18.320Z,0.73
2023-12-13T22:43:03.805Z,0.82
2023-12-13T22:45:49.264Z,0.50
2023-12-13T22:48:34.987Z,0.80
2023-12-13T22:51:20.507Z,0.80
2023-12-13T22:54:06.099Z,0.80
2023-12-13T22:56:52.202Z,1.08
2023-12-13T22:59:37.897Z,0.57
2023-12-13T23:02:23.433Z,1.30
2023-12-13T23:05:10.215Z,0.90
2023-12-13T23:07:56.616Z,0.57
2023-12-13T23:10:42.326Z,0.50
2023-12-13T23:13:28.340Z,0.50
2023-12-13T23:16:17.078Z,0.90
2023-12-13T23:19:04.997Z,1.85
2023-12-13T23:21:51.172Z,0.95
2023-12-13T23:24:37.156Z,1.90
2023-12-13T23:27:22.883Z,2.20
2023-12-13T23:30:10.341Z,1.10
2023-12-13T23:32:56.337Z,1.20
2023-12-13T23:35:41.675Z,2.72
2023-12-13T23:38:27.584Z,1.65
2023-12-13T23:41:13.354Z,4.00
2023-12-13T23:43:59.351Z,1.30
2023-12-13T23:46:45.330Z,1.48
2023-12-13T23:49:30.858Z,1.30
2023-12-13T23:52:16.712Z,1.10
2023-12-13T23:55:02.416Z,1.10
2023-12-13T23:57:48.623Z,0.95
